createdAt,value
2023-01-05T00:01:51.005Z,9.00
2023-01-05T00:04:19.088Z,8.90
2023-01-05T00:06:46.607Z,8.80
2023-01-05T00:09:18.501Z,8.80
2023-01-05T00:12:04.573Z,8.90
2023-01-05T00:14:52.601Z,9.20
2023-01-05T00:17:43.700Z,9.20
2023-01-05T00:20:36.600Z,9.30
2023-01-05T00:23:05.023Z,9.30
2023-01-05T00:25:37.913Z,9.40
2023-01-05T00:28:05.599Z,9.30
2023-01-05T00:30:42.483Z,9.30
2023-01-05T00:33:13.721Z,9.30
2023-01-05T00:35:41.555Z,9.30
2023-01-05T00:38:09.847Z,9.30
2023-01-05T00:40:37.390Z,9.30
2023-01-05T00:43:05.025Z,9.40
2023-01-05T00:45:32.674Z,9.50
2023-01-05T00:48:00.261Z,9.70
2023-01-05T00:50:28.250Z,9.90
2023-01-05T00:52:55.720Z,9.90
2023-01-05T00:55:23.211Z,10.00
2023-01-05T00:57:50.680Z,10.10
2023-01-05T01:00:20.112Z,10.10
2023-01-05T01:02:48.281Z,10.10
2023-01-05T01:05:16.009Z,10.00
2023-01-05T01:07:43.446Z,10.00
2023-01-05T01:10:12.031Z,10.10
2023-01-05T01:12:39.535Z,10.30
2023-01-05T01:15:08.570Z,10.50
2023-01-05T01:17:36.354Z,10.60
2023-01-05T01:20:04.690Z,10.70
2023-01-05T01:22:32.100Z,10.60
2023-01-05T01:24:59.518Z,10.60
2023-01-05T01:27:26.923Z,10.60
2023-01-05T01:29:54.343Z,10.70
2023-01-05T01:32:22.011Z,10.70
2023-01-05T01:34:49.497Z,10.70
2023-01-05T01:37:17.495Z,10.70
2023-01-05T01:39:44.924Z,10.70
2023-01-05T01:42:16.351Z,10.60
2023-01-05T01:44:57.211Z,10.60
2023-01-05T01:47:47.966Z,10.50
2023-01-05T01:50:27.517Z,10.50
2023-01-05T01:53:18.443Z,10.60
2023-01-05T01:55:46.619Z,10.60
2023-01-05T01:58:18.335Z,10.60
2023-01-05T02:00:46.987Z,10.50
2023-01-05T02:03:15.465Z,10.50
2023-01-05T02:05:42.933Z,10.60
2023-01-05T02:08:16.412Z,10.40
2023-01-05T02:11:05.111Z,10.20
2023-01-05T02:14:02.311Z,10.30
2023-01-05T02:16:51.185Z,10.20
2023-01-05T02:19:33.743Z,10.20
2023-01-05T02:22:57.486Z,10.20
2023-01-05T02:26:01.371Z,10.20
2023-01-05T02:29:12.120Z,10.10
2023-01-05T02:32:04.724Z,10.10
2023-01-05T02:35:05.114Z,10.00
2023-01-05T02:37:46.261Z,10.00
2023-01-05T02:40:28.122Z,9.90
2023-01-05T02:42:56.707Z,9.80
2023-01-05T02:45:24.988Z,9.80
2023-01-05T02:47:52.571Z,9.60
2023-01-05T02:50:33.388Z,9.40
2023-01-05T02:53:22.195Z,9.10
2023-01-05T02:56:02.284Z,9.10
2023-01-05T02:58:40.538Z,9.10
2023-01-05T03:01:18.106Z,9.00
2023-01-05T03:04:46.263Z,9.00
2023-01-05T03:07:18.621Z,9.00
2023-01-05T03:09:46.906Z,8.90
2023-01-05T03:12:46.088Z,8.80
2023-01-05T03:15:33.760Z,8.70
2023-01-05T03:18:14.908Z,8.70
2023-01-05T03:20:47.755Z,8.60
2023-01-05T03:23:37.161Z,8.60
2023-01-05T03:26:25.896Z,8.60
2023-01-05T03:29:19.001Z,8.60
2023-01-05T03:32:16.306Z,8.50
2023-01-05T03:35:27.203Z,8.50
2023-01-05T03:38:25.320Z,8.40
2023-01-05T03:40:57.602Z,8.40
2023-01-05T03:43:26.267Z,8.20
2023-01-05T03:45:57.273Z,8.00
2023-01-05T03:48:27.891Z,7.70
2023-01-05T03:50:55.860Z,7.60
2023-01-05T03:53:23.267Z,7.40
2023-01-05T03:55:50.690Z,7.30
2023-01-05T03:58:18.148Z,7.40
2023-01-05T04:00:45.563Z,7.40
2023-01-05T04:03:13.111Z,7.50
2023-01-05T04:05:40.689Z,7.50
2023-01-05T04:08:08.740Z,7.50
2023-01-05T04:10:36.209Z,7.50
2023-01-05T04:13:03.758Z,7.50
2023-01-05T04:15:31.213Z,7.70
2023-01-05T04:17:58.723Z,7.70
2023-01-05T04:20:26.314Z,7.70
2023-01-05T04:22:53.727Z,7.70
2023-01-05T04:25:21.155Z,7.70
2023-01-05T04:27:48.622Z,7.70
2023-01-05T04:30:16.072Z,7.70
2023-01-05T04:32:43.485Z,7.70
2023-01-05T04:35:11.648Z,7.70
2023-01-05T04:37:39.888Z,7.80
2023-01-05T04:40:08.287Z,7.70
2023-01-05T04:42:35.762Z,7.70
2023-01-05T04:45:03.312Z,7.80
2023-01-05T04:47:30.743Z,7.80
2023-01-05T04:49:58.148Z,7.80
2023-01-05T04:52:25.556Z,7.80
2023-01-05T04:54:52.930Z,7.80
2023-01-05T04:57:20.356Z,7.80
2023-01-05T04:59:47.744Z,7.80
2023-01-05T05:02:15.250Z,7.80
2023-01-05T05:04:42.810Z,7.80
2023-01-05T05:07:10.796Z,7.90
2023-01-05T05:09:38.248Z,7.90
2023-01-05T05:12:05.968Z,7.90
2023-01-05T05:14:33.491Z,7.90
2023-01-05T05:17:00.980Z,7.90
2023-01-05T05:19:28.546Z,7.90
2023-01-05T05:21:55.983Z,8.00
2023-01-05T05:24:23.571Z,8.00
2023-01-05T05:26:51.008Z,8.10
2023-01-05T05:29:18.484Z,8.10
2023-01-05T05:31:46.204Z,8.10
2023-01-05T05:34:13.691Z,8.10
2023-01-05T05:36:41.124Z,8.10
2023-01-05T05:39:08.648Z,8.10
2023-01-05T05:41:36.116Z,8.10
2023-01-05T05:44:03.504Z,8.10
2023-01-05T05:46:31.261Z,8.00
2023-01-05T05:49:00.430Z,8.10
2023-01-05T05:51:28.581Z,8.10
2023-01-05T05:53:55.999Z,8.00
2023-01-05T05:56:23.559Z,8.00
2023-01-05T05:58:54.717Z,8.00
2023-01-05T06:01:24.987Z,8.00
2023-01-05T06:03:52.506Z,8.00
2023-01-05T06:06:19.903Z,8.00
2023-01-05T06:08:47.350Z,8.00
2023-01-05T06:11:14.811Z,7.90
2023-01-05T06:13:42.555Z,7.90
2023-01-05T06:16:10.194Z,8.00
2023-01-05T06:18:37.648Z,7.90
2023-01-05T06:21:05.383Z,8.00
2023-01-05T06:23:33.076Z,8.00
2023-01-05T06:26:00.491Z,8.00
2023-01-05T06:28:27.908Z,7.90
2023-01-05T06:30:55.387Z,7.90
2023-01-05T06:33:22.819Z,8.00
2023-01-05T06:35:50.262Z,7.90
2023-01-05T06:38:17.946Z,7.80
2023-01-05T06:40:47.880Z,7.90
2023-01-05T06:43:15.368Z,7.90
2023-01-05T06:45:42.958Z,8.00
2023-01-05T06:48:10.723Z,8.00
2023-01-05T06:50:38.158Z,8.00
2023-01-05T06:53:05.596Z,8.00
2023-01-05T06:55:33.256Z,8.00
2023-01-05T06:58:01.394Z,8.00
2023-01-05T07:00:29.737Z,8.00
2023-01-05T07:02:57.313Z,8.00
2023-01-05T07:05:24.946Z,8.00
2023-01-05T07:07:52.496Z,8.10
2023-01-05T07:10:20.080Z,8.10
2023-01-05T07:12:47.532Z,8.10
2023-01-05T07:15:15.109Z,8.10
2023-01-05T07:17:42.583Z,8.10
2023-01-05T07:20:10.362Z,8.10
2023-01-05T07:22:37.804Z,8.20
2023-01-05T07:25:05.571Z,8.20
2023-01-05T07:27:33.116Z,8.20
2023-01-05T07:30:00.744Z,8.30
2023-01-05T07:32:28.193Z,8.30
2023-01-05T07:34:56.285Z,8.30
2023-01-05T07:37:25.566Z,8.40
2023-01-05T07:39:53.453Z,8.40
2023-01-05T07:42:20.864Z,8.40
2023-01-05T07:44:48.370Z,8.40
2023-01-05T07:47:15.877Z,8.50
2023-01-05T07:49:43.413Z,8.50
2023-01-05T07:52:10.868Z,8.50
2023-01-05T07:54:38.378Z,8.50
2023-01-05T07:57:05.872Z,8.40
2023-01-05T07:59:33.337Z,8.30
2023-01-05T08:02:00.878Z,8.30
2023-01-05T08:04:28.439Z,8.30
2023-01-05T08:06:56.475Z,8.40
2023-01-05T08:09:47.182Z,8.50
2023-01-05T08:12:14.618Z,8.60
2023-01-05T08:14:42.026Z,8.70
2023-01-05T08:17:09.729Z,8.70
2023-01-05T08:19:37.192Z,8.70
2023-01-05T08:22:04.614Z,8.70
2023-01-05T08:24:32.311Z,8.70
2023-01-05T08:26:59.685Z,8.70
2023-01-05T08:29:27.508Z,8.70
2023-01-05T08:31:54.970Z,8.80
2023-01-05T08:34:22.443Z,8.80
2023-01-05T08:36:49.994Z,8.90
2023-01-05T08:39:17.413Z,9.00
2023-01-05T08:41:44.852Z,9.10
2023-01-05T08:44:14.593Z,9.20
2023-01-05T08:46:42.095Z,9.20
2023-01-05T08:49:10.036Z,9.30
2023-01-05T08:51:37.925Z,9.20
2023-01-05T08:54:05.559Z,9.20
2023-01-05T08:56:38.313Z,9.10
2023-01-05T08:59:06.984Z,9.00
2023-01-05T09:01:34.613Z,8.90
2023-01-05T09:04:02.216Z,8.90
2023-01-05T09:06:29.827Z,8.90
2023-01-05T09:08:57.415Z,8.90
2023-01-05T09:11:26.249Z,8.90
2023-01-05T09:13:57.484Z,8.90
2023-01-05T09:19:19.196Z,8.80
2023-01-05T09:21:46.898Z,8.60
2023-01-05T09:24:14.452Z,8.60
2023-01-05T09:26:42.816Z,8.50
2023-01-05T09:29:11.755Z,8.40
2023-01-05T09:31:41.963Z,8.40
2023-01-05T09:34:10.490Z,8.30
2023-01-05T09:36:41.390Z,8.40
2023-01-05T09:39:09.762Z,8.40
2023-01-05T09:42:03.587Z,8.30
2023-01-05T09:44:44.634Z,8.30
2023-01-05T09:47:37.282Z,8.30
2023-01-05T09:50:19.348Z,8.40
2023-01-05T09:52:47.663Z,8.50
2023-01-05T09:55:18.582Z,8.60
2023-01-05T09:58:06.916Z,8.70
2023-01-05T10:00:36.202Z,8.70
2023-01-05T10:03:23.221Z,8.70
2023-01-05T10:06:01.186Z,8.90
2023-01-05T10:08:40.545Z,8.80
2023-01-05T10:11:33.942Z,8.70
2023-01-05T10:14:16.350Z,8.60
2023-01-05T10:16:45.642Z,8.50
2023-01-05T10:19:19.942Z,8.40
2023-01-05T10:22:24.129Z,8.30
2023-01-05T10:25:20.011Z,8.10
2023-01-05T10:28:08.577Z,8.00
2023-01-05T10:30:58.311Z,7.70
2023-01-05T10:33:59.006Z,7.50
2023-01-05T10:37:19.226Z,7.20
2023-01-05T10:40:07.551Z,7.00
2023-01-05T10:43:18.050Z,6.80
2023-01-05T10:46:19.377Z,6.80
2023-01-05T10:48:36.163Z,6.70
2023-01-05T10:51:05.176Z,6.70
2023-01-05T10:53:37.441Z,6.70
2023-01-05T10:56:18.965Z,6.70
2023-01-05T10:58:47.076Z,6.70
2023-01-05T11:01:31.010Z,6.70
2023-01-05T11:04:33.150Z,6.60
2023-01-05T11:07:06.220Z,6.60
2023-01-05T11:09:39.645Z,6.60
2023-01-05T11:12:17.883Z,6.50
2023-01-05T11:15:00.064Z,6.50
2023-01-05T11:17:29.534Z,6.60
2023-01-05T11:19:58.345Z,6.70
2023-01-05T11:22:38.000Z,6.80
2023-01-05T11:25:31.635Z,6.80
2023-01-05T11:28:30.634Z,6.80
2023-01-05T11:31:04.815Z,6.70
2023-01-05T11:33:39.809Z,6.70
2023-01-05T11:36:07.818Z,6.70
2023-01-05T11:38:35.611Z,6.60
2023-01-05T11:41:03.125Z,6.70
2023-01-05T11:43:33.215Z,6.90
2023-01-05T11:46:04.085Z,7.20
2023-01-05T11:48:34.894Z,7.40
2023-01-05T11:51:03.046Z,7.40
2023-01-05T11:53:37.808Z,7.40
2023-01-05T11:56:24.807Z,7.40
2023-01-05T11:58:55.361Z,7.40
2023-01-05T12:01:57.399Z,7.50
2023-01-05T12:04:59.603Z,7.60
2023-01-05T12:07:32.861Z,7.70
2023-01-05T12:10:12.415Z,7.80
2023-01-05T12:13:27.776Z,7.90
2023-01-05T12:16:44.772Z,8.20
2023-01-05T12:19:41.878Z,8.20
2023-01-05T12:22:54.742Z,8.30
2023-01-05T12:25:45.547Z,8.50
2023-01-05T12:28:42.281Z,8.40
2023-01-05T12:35:11.110Z,8.40
2023-01-05T12:38:15.496Z,8.30
2023-01-05T12:41:00.862Z,8.30
2023-01-05T12:43:46.517Z,8.50
2023-01-05T12:47:09.096Z,8.50
2023-01-05T12:49:53.369Z,8.50
2023-01-05T12:52:28.167Z,8.50
2023-01-05T12:55:24.772Z,8.60
2023-01-05T12:57:59.064Z,8.90
2023-01-05T13:00:31.854Z,9.40
2023-01-05T13:03:02.769Z,9.60
2023-01-05T13:05:52.866Z,9.70
2023-01-05T13:08:26.918Z,9.60
2023-01-05T13:11:05.292Z,9.30
2023-01-05T13:14:01.406Z,9.10
2023-01-05T13:16:31.624Z,9.00
2023-01-05T13:19:18.629Z,8.90
2023-01-05T13:21:48.203Z,8.80
2023-01-05T13:24:48.063Z,8.80
2023-01-05T13:27:16.821Z,8.80
2023-01-05T13:29:51.036Z,8.70
2023-01-05T13:32:36.347Z,8.70
2023-01-05T13:35:22.366Z,8.60
2023-01-05T13:38:07.939Z,8.40
2023-01-05T13:41:01.171Z,8.20
2023-01-05T13:44:03.769Z,8.10
2023-01-05T13:46:47.566Z,7.90
2023-01-05T13:49:23.995Z,7.80
2023-01-05T13:51:57.297Z,7.80
2023-01-05T13:55:01.554Z,7.70
2023-01-05T13:57:42.408Z,7.90
2023-01-05T14:00:28.737Z,8.00
2023-01-05T14:03:40.687Z,7.90
2023-01-05T14:06:19.245Z,7.70
2023-01-05T14:09:00.130Z,7.60
2023-01-05T14:11:29.016Z,7.50
2023-01-05T14:15:00.342Z,7.50
2023-01-05T14:17:53.117Z,7.60
2023-01-05T14:20:49.121Z,7.70
2023-01-05T14:23:25.790Z,7.80
2023-01-05T14:26:00.886Z,7.80
2023-01-05T14:28:31.305Z,7.90
2023-01-05T14:31:14.565Z,8.00
2023-01-05T14:34:05.543Z,8.10
2023-01-05T14:36:43.239Z,8.20
2023-01-05T14:39:18.982Z,8.10
2023-01-05T14:42:07.277Z,8.00
2023-01-05T14:44:57.167Z,7.90
2023-01-05T14:47:58.887Z,7.80
2023-01-05T14:50:41.694Z,7.60
2023-01-05T14:53:33.989Z,7.50
2023-01-05T14:56:01.420Z,7.40
2023-01-05T14:58:43.346Z,7.50
2023-01-05T15:01:17.327Z,7.60
2023-01-05T15:04:03.944Z,7.70
2023-01-05T15:06:58.726Z,7.90
2023-01-05T15:09:56.067Z,8.00
2023-01-05T15:12:52.919Z,8.00
2023-01-05T15:15:49.034Z,8.00
2023-01-05T15:19:06.676Z,8.00
2023-01-05T15:22:37.559Z,8.00
2023-01-05T15:25:49.435Z,8.10
2023-01-05T15:28:43.756Z,8.10
2023-01-05T15:31:41.307Z,8.10
2023-01-05T15:34:27.709Z,8.10
2023-01-05T15:37:17.965Z,8.10
2023-01-05T15:39:46.723Z,8.10
2023-01-05T15:42:25.119Z,8.20
2023-01-05T15:44:55.732Z,8.20
2023-01-05T15:47:27.784Z,8.20
2023-01-05T15:50:01.430Z,8.10
2023-01-05T15:52:39.134Z,8.10
2023-01-05T15:55:21.794Z,8.20
2023-01-05T15:58:05.998Z,8.30
2023-01-05T16:00:36.457Z,8.20
2023-01-05T16:03:28.177Z,8.20
2023-01-05T16:06:03.031Z,8.20
2023-01-05T16:08:34.739Z,8.20
2023-01-05T16:11:07.634Z,8.20
2023-01-05T16:13:50.397Z,8.20
2023-01-05T16:16:51.984Z,8.10
2023-01-05T16:19:50.083Z,8.20
2023-01-05T16:22:57.931Z,8.10
2023-01-05T16:25:32.490Z,8.20
2023-01-05T16:28:08.962Z,8.10
2023-01-05T16:30:40.458Z,8.10
2023-01-05T16:33:13.522Z,8.10
2023-01-05T16:35:55.556Z,8.10
2023-01-05T16:38:30.732Z,8.10
2023-01-05T16:41:27.648Z,8.00
2023-01-05T16:44:01.508Z,8.00
2023-01-05T16:46:35.976Z,8.10
2023-01-05T16:49:26.841Z,8.00
2023-01-05T16:51:55.556Z,8.00
2023-01-05T16:54:35.197Z,8.00
2023-01-05T16:57:29.108Z,7.90
2023-01-05T16:59:57.591Z,7.90
2023-01-05T17:02:40.348Z,7.90
2023-01-05T17:05:08.310Z,7.90
2023-01-05T17:07:39.531Z,7.90
2023-01-05T17:10:27.816Z,7.90
2023-01-05T17:13:20.860Z,7.90
2023-01-05T17:15:51.223Z,7.90
2023-01-05T17:18:28.780Z,7.90
2023-01-05T17:20:58.445Z,7.90
2023-01-05T17:23:33.107Z,7.80
2023-01-05T17:26:06.983Z,7.70
2023-01-05T17:28:34.969Z,7.70
2023-01-05T17:31:02.566Z,7.70
2023-01-05T17:33:30.311Z,7.70
2023-01-05T17:35:57.854Z,7.50
2023-01-05T17:38:25.302Z,7.30
2023-01-05T17:40:52.786Z,7.00
2023-01-05T17:43:20.273Z,6.70
2023-01-05T17:45:48.190Z,6.50
2023-01-05T17:48:16.514Z,6.40
2023-01-05T17:50:45.327Z,6.30
2023-01-05T17:53:12.790Z,6.20
2023-01-05T17:55:41.425Z,6.10
2023-01-05T17:58:12.439Z,6.00
2023-01-05T18:03:22.547Z,6.00
2023-01-05T18:05:52.998Z,6.00
2023-01-05T18:08:21.544Z,6.10
2023-01-05T18:10:49.215Z,6.10
2023-01-05T18:13:19.660Z,6.30
2023-01-05T18:15:50.805Z,6.30
2023-01-05T18:18:18.789Z,6.30
2023-01-05T18:20:46.296Z,6.30
2023-01-05T18:23:13.737Z,6.20
2023-01-05T18:25:41.138Z,6.20
2023-01-05T18:28:08.675Z,6.10
2023-01-05T18:30:37.047Z,6.20
2023-01-05T18:33:04.573Z,6.20
2023-01-05T18:35:32.025Z,6.20
2023-01-05T18:38:01.250Z,6.20
2023-01-05T18:40:29.423Z,6.10
2023-01-05T18:42:56.929Z,6.10
2023-01-05T18:45:38.314Z,6.10
2023-01-05T18:48:06.963Z,6.00
2023-01-05T18:50:34.373Z,6.10
2023-01-05T18:53:01.825Z,6.00
2023-01-05T18:55:29.462Z,6.00
2023-01-05T18:57:56.853Z,6.00
2023-01-05T19:00:24.370Z,5.90
2023-01-05T19:02:51.782Z,5.80
2023-01-05T19:05:19.222Z,5.80
2023-01-05T19:07:51.106Z,5.70
2023-01-05T19:10:18.705Z,5.70
2023-01-05T19:12:46.227Z,5.60
2023-01-05T19:15:13.767Z,5.60
2023-01-05T19:17:41.352Z,5.60
2023-01-05T19:20:09.674Z,5.60
2023-01-05T19:22:37.360Z,5.60
2023-01-05T19:25:05.943Z,5.60
2023-01-05T19:27:33.660Z,5.60
2023-01-05T19:30:01.088Z,5.60
2023-01-05T19:32:28.542Z,5.60
2023-01-05T19:34:55.996Z,5.60
2023-01-05T19:37:23.457Z,5.60
2023-01-05T19:39:50.957Z,5.50
2023-01-05T19:42:18.396Z,5.50
2023-01-05T19:44:46.654Z,5.50
2023-01-05T19:47:14.110Z,5.50
2023-01-05T19:49:41.570Z,5.50
2023-01-05T19:52:09.071Z,5.50
2023-01-05T19:54:39.344Z,5.40
2023-01-05T19:57:06.924Z,5.40
2023-01-05T19:59:34.402Z,5.50
2023-01-05T20:02:04.011Z,5.40
2023-01-05T20:04:32.238Z,5.40
2023-01-05T20:07:03.941Z,5.40
2023-01-05T20:09:32.140Z,5.40
2023-01-05T20:12:13.178Z,5.40
2023-01-05T20:14:41.872Z,5.40
2023-01-05T20:17:11.432Z,5.40
2023-01-05T20:19:39.884Z,5.40
2023-01-05T20:22:14.684Z,5.30
2023-01-05T20:24:43.550Z,5.40
2023-01-05T20:27:14.508Z,5.30
2023-01-05T20:29:42.477Z,5.40
2023-01-05T20:32:20.206Z,5.30
2023-01-05T20:34:54.181Z,5.30
2023-01-05T20:37:23.949Z,5.30
2023-01-05T20:39:54.897Z,5.30
2023-01-05T20:42:22.312Z,5.30
2023-01-05T20:44:50.947Z,5.20
2023-01-05T20:47:18.551Z,5.20
2023-01-05T20:49:46.833Z,5.20
2023-01-05T20:52:17.824Z,5.20
2023-01-05T20:54:45.980Z,5.10
2023-01-05T20:57:13.433Z,5.10
2023-01-05T20:59:41.503Z,5.10
2023-01-05T21:02:23.052Z,5.10
2023-01-05T21:04:53.309Z,5.00
2023-01-05T21:07:21.791Z,5.10
2023-01-05T21:09:51.630Z,5.00
2023-01-05T21:12:19.705Z,5.00
2023-01-05T21:14:47.210Z,5.00
2023-01-05T21:17:14.675Z,5.00
2023-01-05T21:19:42.126Z,5.00
2023-01-05T21:22:09.584Z,5.00
2023-01-05T21:24:37.346Z,5.00
2023-01-05T21:27:04.801Z,5.00
2023-01-05T21:29:33.213Z,5.00
2023-01-05T21:32:00.668Z,4.90
2023-01-05T21:34:28.810Z,4.90
2023-01-05T21:36:56.243Z,4.90
2023-01-05T21:39:26.077Z,4.70
2023-01-05T21:42:13.345Z,4.50
2023-01-05T21:44:41.284Z,4.50
2023-01-05T21:47:09.184Z,4.40
2023-01-05T21:49:37.115Z,4.30
2023-01-05T21:52:24.335Z,4.30
2023-01-05T21:55:10.479Z,4.20
2023-01-05T21:57:38.085Z,4.20
2023-01-05T22:00:07.111Z,4.10
2023-01-05T22:02:34.710Z,4.00
2023-01-05T22:05:02.284Z,3.90
2023-01-05T22:07:30.036Z,3.90
2023-01-05T22:09:57.397Z,3.90
2023-01-05T22:12:24.862Z,3.90
2023-01-05T22:14:52.247Z,3.90
2023-01-05T22:17:19.700Z,3.80
2023-01-05T22:19:47.224Z,3.90
2023-01-05T22:22:14.904Z,3.90
2023-01-05T22:24:42.356Z,3.90
2023-01-05T22:27:09.901Z,3.90
2023-01-05T22:29:37.380Z,3.80
2023-01-05T22:32:05.313Z,3.70
2023-01-05T22:34:33.669Z,3.70
2023-01-05T22:37:01.100Z,3.80
2023-01-05T22:39:28.530Z,3.80
2023-01-05T22:41:56.011Z,3.90
2023-01-05T22:44:23.442Z,3.90
2023-01-05T22:46:50.832Z,4.00
2023-01-05T22:49:18.250Z,4.10
2023-01-05T22:51:46.501Z,4.20
2023-01-05T22:54:14.574Z,4.20
2023-01-05T22:56:42.025Z,4.10
2023-01-05T22:59:09.660Z,4.10
2023-01-05T23:01:43.416Z,4.20
2023-01-05T23:04:12.117Z,4.10
2023-01-05T23:06:40.896Z,4.10
2023-01-05T23:09:13.145Z,4.10
2023-01-05T23:11:42.371Z,4.10
2023-01-05T23:14:12.557Z,4.20
2023-01-05T23:16:40.327Z,4.20
2023-01-05T23:19:09.690Z,4.20
2023-01-05T23:21:37.377Z,4.20
2023-01-05T23:24:05.678Z,4.20
2023-01-05T23:26:33.158Z,4.20
2023-01-05T23:29:01.374Z,4.20
2023-01-05T23:31:28.820Z,4.30
2023-01-05T23:33:57.479Z,4.30
2023-01-05T23:36:24.983Z,4.30
2023-01-05T23:38:52.514Z,4.30
2023-01-05T23:41:21.393Z,4.30
2023-01-05T23:43:49.163Z,4.30
2023-01-05T23:46:20.618Z,4.40
2023-01-05T23:48:49.594Z,4.30
2023-01-05T23:51:18.401Z,4.30
2023-01-05T23:53:50.067Z,4.30
2023-01-05T23:56:27.567Z,4.30
2023-01-05T23:59:05.732Z,4.20
